Terminal Aerodrome Forecast
Issued by NWS

Home | Current Version | Previous Version | Text Only | Print | Product List | Glossary On
Versions: 1 2 3 4 5 6 7 8 9 10 11 12 13
668
FTPA31 PHFO 251739
TAFHLI
TAF
PHLI 251739Z 2518/2618 08008KT P6SM VCSH SCT020 BKN035
     FM252000 07010KT P6SM VCSH SCT020 SCT040
     FM260600 01005KT P6SM SCT045=

USA.gov is the U.S. government's official web portal to all federal, state and local government web resources and services.